sensor_id;sensor_type;location;lat;lon;timestamp;pressure;altitude;pressure_sealevel;temperature;humidity
50592;BME280;36548;50.506;30.834;2023-02-28T00:00:27;101207.20;;;-0.27;55.92
50592;BME280;36548;50.506;30.834;2023-02-28T00:01:37;101197.55;;;-0.32;55.76
50592;BME280;36548;50.506;30.834;2023-02-28T00:02:47;101197.59;;;-0.40;55.48
50592;BME280;36548;50.506;30.834;2023-02-28T00:03:57;101202.00;;;-0.45;55.55
50592;BME280;36548;50.506;30.834;2023-02-28T00:05:08;101201.98;;;-0.36;55.76
50592;BME280;36548;50.506;30.834;2023-02-28T00:06:18;101201.92;;;-0.28;56.00
50592;BME280;36548;50.506;30.834;2023-02-28T00:07:30;101205.45;;;-0.26;55.71
50592;BME280;36548;50.506;30.834;2023-02-28T00:08:42;101201.00;;;-0.21;55.63
50592;BME280;36548;50.506;30.834;2023-02-28T00:09:50;101198.38;;;-0.18;55.30
50592;BME280;36548;50.506;30.834;2023-02-28T00:11:05;101198.37;;;-0.16;55.26
50592;BME280;36548;50.506;30.834;2023-02-28T00:12:15;101202.73;;;-0.15;55.34
50592;BME280;36548;50.506;30.834;2023-02-28T00:13:24;101208.87;;;-0.09;55.45
50592;BME280;36548;50.506;30.834;2023-02-28T00:14:33;101204.44;;;-0.02;55.61
50592;BME280;36548;50.506;30.834;2023-02-28T00:15:41;101201.78;;;-0.01;54.96
50592;BME280;36548;50.506;30.834;2023-02-28T00:16:50;101202.66;;;0.03;54.85
50592;BME280;36548;50.506;30.834;2023-02-28T00:17:58;101202.67;;;0.02;54.70
50592;BME280;36548;50.506;30.834;2023-02-28T00:19:07;101202.64;;;0.05;54.71
50592;BME280;36548;50.506;30.834;2023-02-28T00:20:18;101206.13;;;0.08;54.91
50592;BME280;36548;50.506;30.834;2023-02-28T00:21:26;101208.76;;;0.13;54.95
50592;BME280;36548;50.506;30.834;2023-02-28T00:22:38;101199.06;;;0.13;54.50
50592;BME280;36548;50.506;30.834;2023-02-28T00:23:48;101207.88;;;0.14;54.57
50592;BME280;36548;50.506;30.834;2023-02-28T00:24:57;101205.22;;;0.12;54.42
50592;BME280;36548;50.506;30.834;2023-02-28T00:26:06;101206.20;;;-0.01;54.28
50592;BME280;36548;50.506;30.834;2023-02-28T00:27:18;101207.06;;;-0.01;54.64
50592;BME280;36548;50.506;30.834;2023-02-28T00:28:28;101209.66;;;0.09;55.21
50592;BME280;36548;50.506;30.834;2023-02-28T00:29:37;101206.95;;;0.18;55.34
50592;BME280;36548;50.506;30.834;2023-02-28T00:30:47;101203.45;;;0.16;54.13
50592;BME280;36548;50.506;30.834;2023-02-28T00:31:56;101206.08;;;0.18;54.01
50592;BME280;36548;50.506;30.834;2023-02-28T00:33:05;101202.63;;;0.06;53.72
50592;BME280;36548;50.506;30.834;2023-02-28T00:34:14;101197.39;;;0.02;53.97
50592;BME280;36548;50.506;30.834;2023-02-28T00:35:24;101201.95;;;-0.33;54.45
50592;BME280;36548;50.506;30.834;2023-02-28T00:36:33;101194.90;;;-0.31;54.68
50592;BME280;36548;50.506;30.834;2023-02-28T00:37:44;101195.78;;;-0.33;54.80
50592;BME280;36548;50.506;30.834;2023-02-28T00:38:52;101201.08;;;-0.37;54.74
50592;BME280;36548;50.506;30.834;2023-02-28T00:40:02;101199.37;;;-0.53;55.16
50592;BME280;36548;50.506;30.834;2023-02-28T00:41:13;101191.46;;;-0.47;55.40
50592;BME280;36548;50.506;30.834;2023-02-28T00:42:24;101194.08;;;-0.44;55.13
50592;BME280;36548;50.506;30.834;2023-02-28T00:43:35;101193.17;;;-0.38;55.27
50592;BME280;36548;50.506;30.834;2023-02-28T00:44:50;101193.98;;;-0.21;55.37
50592;BME280;36548;50.506;30.834;2023-02-28T00:46:01;101192.27;;;-0.32;54.83
50592;BME280;36548;50.506;30.834;2023-02-28T00:47:12;101198.44;;;-0.30;54.91
50592;BME280;36548;50.506;30.834;2023-02-28T00:48:22;101202.84;;;-0.36;54.87
50592;BME280;36548;50.506;30.834;2023-02-28T00:49:31;101212.47;;;-0.27;55.15
50592;BME280;36548;50.506;30.834;2023-02-28T00:50:40;101206.34;;;-0.29;54.78
50592;BME280;36548;50.506;30.834;2023-02-28T00:51:49;101208.09;;;-0.26;55.01
50592;BME280;36548;50.506;30.834;2023-02-28T00:53:00;101201.99;;;-0.44;54.56
50592;BME280;36548;50.506;30.834;2023-02-28T00:54:09;101200.19;;;-0.32;55.08
50592;BME280;36548;50.506;30.834;2023-02-28T00:55:18;101201.07;;;-0.35;54.69
50592;BME280;36548;50.506;30.834;2023-02-28T00:56:27;101201.95;;;-0.31;54.89
50592;BME280;36548;50.506;30.834;2023-02-28T00:57:38;101205.44;;;-0.25;55.11
50592;BME280;36548;50.506;30.834;2023-02-28T00:58:48;101200.12;;;-0.19;54.89
50592;BME280;36548;50.506;30.834;2023-02-28T00:59:58;101204.48;;;-0.13;54.82
50592;BME280;36548;50.506;30.834;2023-02-28T01:01:07;101210.64;;;-0.09;54.53
50592;BME280;36548;50.506;30.834;2023-02-28T01:02:16;101203.71;;;-0.30;54.25
50592;BME280;36548;50.506;30.834;2023-02-28T01:03:33;101201.08;;;-0.37;54.80
50592;BME280;36548;50.506;30.834;2023-02-28T01:04:42;101209.87;;;-0.38;55.15
50592;BME280;36548;50.506;30.834;2023-02-28T01:05:51;101201.95;;;-0.31;55.27
50592;BME280;36548;50.506;30.834;2023-02-28T01:07:02;101208.12;;;-0.37;54.89
50592;BME280;36548;50.506;30.834;2023-02-28T01:08:11;101205.47;;;-0.34;55.06
50592;BME280;36548;50.506;30.834;2023-02-28T01:09:21;101208.97;;;-0.32;55.27
50592;BME280;36548;50.506;30.834;2023-02-28T01:10:32;101208.98;;;-0.35;54.97
50592;BME280;36548;50.506;30.834;2023-02-28T01:11:41;101209.95;;;-0.50;55.11
50592;BME280;36548;50.506;30.834;2023-02-28T01:12:52;101202.87;;;-0.40;55.45
50592;BME280;36548;50.506;30.834;2023-02-28T01:14:02;101201.13;;;-0.50;55.26
50592;BME280;36548;50.506;30.834;2023-02-28T01:15:12;101207.29;;;-0.47;55.40
50592;BME280;36548;50.506;30.834;2023-02-28T01:16:21;101205.58;;;-0.70;55.76
50592;BME280;36548;50.506;30.834;2023-02-28T01:17:30;101202.95;;;-0.65;55.86
50592;BME280;36548;50.506;30.834;2023-02-28T01:18:42;101198.53;;;-0.61;55.72
50592;BME280;36548;50.506;30.834;2023-02-28T01:20:17;101204.66;;;-0.48;55.98
50592;BME280;36548;50.506;30.834;2023-02-28T01:21:26;101202.09;;;-0.73;55.90
50592;BME280;36548;50.506;30.834;2023-02-28T01:22:36;101205.56;;;-0.59;56.06
50592;BME280;36548;50.506;30.834;2023-02-28T01:23:45;101202.08;;;-0.70;55.86
50592;BME280;36548;50.506;30.834;2023-02-28T01:24:55;101201.22;;;-0.72;56.12
50592;BME280;36548;50.506;30.834;2023-02-28T01:26:07;101202.06;;;-0.61;56.37
50592;BME280;36548;50.506;30.834;2023-02-28T01:27:23;101204.66;;;-0.53;55.75
50592;BME280;36548;50.506;30.834;2023-02-28T01:28:34;101200.31;;;-0.65;55.90
50592;BME280;36548;50.506;30.834;2023-02-28T01:29:44;101204.69;;;-0.65;56.04
50592;BME280;36548;50.506;30.834;2023-02-28T01:30:53;101209.09;;;-0.64;56.16
50592;BME280;36548;50.506;30.834;2023-02-28T01:32:02;101217.87;;;-0.58;56.20
50592;BME280;36548;50.506;30.834;2023-02-28T01:33:11;101211.70;;;-0.60;55.69
50592;BME280;36548;50.506;30.834;2023-02-28T01:34:21;101216.09;;;-0.56;55.68
50592;BME280;36548;50.506;30.834;2023-02-28T01:35:34;101212.61;;;-0.61;55.41
50592;BME280;36548;50.506;30.834;2023-02-28T01:36:44;101208.19;;;-0.57;55.69
50592;BME280;36548;50.506;30.834;2023-02-28T01:37:52;101210.84;;;-0.60;55.30
50592;BME280;36548;50.506;30.834;2023-02-28T01:39:02;101207.34;;;-0.62;55.52
50592;BME280;36548;50.506;30.834;2023-02-28T01:40:13;101211.73;;;-0.58;55.60
50592;BME280;36548;50.506;30.834;2023-02-28T01:41:27;101205.55;;;-0.51;55.82
50592;BME280;36548;50.506;30.834;2023-02-28T01:42:49;101209.09;;;-0.57;55.30
50592;BME280;36548;50.506;30.834;2023-02-28T01:44:04;101222.28;;;-0.66;55.46
50592;BME280;36548;50.506;30.834;2023-02-28T01:45:24;101217.06;;;-0.84;55.72
50592;BME280;36548;50.506;30.834;2023-02-28T01:46:35;101220.59;;;-0.89;56.03
50592;BME280;36548;50.506;30.834;2023-02-28T01:47:45;101221.45;;;-0.87;55.94
50592;BME280;36548;50.506;30.834;2023-02-28T01:49:03;101217.93;;;-0.84;56.01
50592;BME280;36548;50.506;30.834;2023-02-28T01:50:16;101224.08;;;-0.79;56.11
50592;BME280;36548;50.506;30.834;2023-02-28T01:52:47;101222.34;;;-0.86;56.43
50592;BME280;36548;50.506;30.834;2023-02-28T01:54:03;101221.45;;;-0.96;56.46
50592;BME280;36548;50.506;30.834;2023-02-28T01:55:20;101226.69;;;-0.71;56.88
50592;BME280;36548;50.506;30.834;2023-02-28T01:56:33;101221.44;;;-0.83;56.49
50592;BME280;36548;50.506;30.834;2023-02-28T01:57:48;101225.81;;;-0.78;56.44
50592;BME280;36548;50.506;30.834;2023-02-28T01:58:59;101223.18;;;-0.72;56.52
50592;BME280;36548;50.506;30.834;2023-02-28T02:00:13;101217.03;;;-0.69;56.41
50592;BME280;36548;50.506;30.834;2023-02-28T02:01:31;101216.14;;;-0.65;56.17
50592;BME280;36548;50.506;30.834;2023-02-28T02:02:45;101215.26;;;-0.62;56.19
50592;BME280;36548;50.506;30.834;2023-02-28T02:03:58;101217.87;;;-0.58;56.19
50592;BME280;36548;50.506;30.834;2023-02-28T02:05:12;101222.26;;;-0.55;55.73
50592;BME280;36548;50.506;30.834;2023-02-28T02:06:39;101223.11;;;-0.52;55.44
50592;BME280;36548;50.506;30.834;2023-02-28T02:07:57;101220.52;;;-0.65;55.52
50592;BME280;36548;50.506;30.834;2023-02-28T02:09:14;101217.84;;;-0.47;55.71
50592;BME280;36548;50.506;30.834;2023-02-28T02:11:43;101215.22;;;-0.56;55.60
50592;BME280;36548;50.506;30.834;2023-02-28T02:13:19;101220.48;;;-0.55;55.65
50592;BME280;36548;50.506;30.834;2023-02-28T02:17:39;101224.02;;;-0.54;55.37
50592;BME280;36548;50.506;30.834;2023-02-28T02:21:02;101221.35;;;-0.48;55.70
50592;BME280;36548;50.506;30.834;2023-02-28T02:34:22;101231.89;;;-0.40;54.40
50592;BME280;36548;50.506;30.834;2023-02-28T02:35:35;101223.97;;;-0.39;54.54
50592;BME280;36548;50.506;30.834;2023-02-28T02:37:01;101234.53;;;-0.40;54.46
50592;BME280;36548;50.506;30.834;2023-02-28T02:38:34;101230.98;;;-0.39;54.47
50592;BME280;36548;50.506;30.834;2023-02-28T02:39:48;101233.66;;;-0.45;53.94
50592;BME280;36548;50.506;30.834;2023-02-28T02:41:21;101238.92;;;-0.44;54.38
50592;BME280;36548;50.506;30.834;2023-02-28T02:45:32;101238.89;;;-0.31;54.39
50592;BME280;36548;50.506;30.834;2023-02-28T02:46:47;101233.65;;;-0.44;54.09
50592;BME280;36548;50.506;30.834;2023-02-28T02:47:59;101244.22;;;-0.47;54.18
50592;BME280;36548;50.506;30.834;2023-02-28T02:49:18;101244.23;;;-0.64;54.00
50592;BME280;36548;50.506;30.834;2023-02-28T02:50:40;101241.60;;;-0.58;54.58
50592;BME280;36548;50.506;30.834;2023-02-28T02:51:51;101249.53;;;-0.62;54.96
50592;BME280;36548;50.506;30.834;2023-02-28T02:53:03;101252.16;;;-0.59;55.11
50592;BME280;36548;50.506;30.834;2023-02-28T02:54:17;101258.33;;;-0.65;54.80
50592;BME280;36548;50.506;30.834;2023-02-28T02:55:27;101254.80;;;-0.61;54.96
50592;BME280;36548;50.506;30.834;2023-02-28T02:56:39;101253.06;;;-0.68;54.76
50592;BME280;36548;50.506;30.834;2023-02-28T02:57:53;101246.03;;;-0.69;54.73
50592;BME280;36548;50.506;30.834;2023-02-28T02:59:07;101253.05;;;-0.65;55.07
50592;BME280;36548;50.506;30.834;2023-02-28T03:00:21;101253.04;;;-0.62;55.05
50592;BME280;36548;50.506;30.834;2023-02-28T03:01:32;101254.80;;;-0.59;54.85
50592;BME280;36548;50.506;30.834;2023-02-28T03:02:45;101256.56;;;-0.58;54.60
50592;BME280;36548;50.506;30.834;2023-02-28T03:04:01;101256.55;;;-0.61;54.56
50592;BME280;36548;50.506;30.834;2023-02-28T03:05:21;101255.69;;;-0.65;54.24
50592;BME280;36548;50.506;30.834;2023-02-28T03:06:36;101248.59;;;-0.47;54.69
50592;BME280;36548;50.506;30.834;2023-02-28T03:07:45;101261.82;;;-0.55;54.57
50592;BME280;36548;50.506;30.834;2023-02-28T03:08:55;101264.44;;;-0.50;54.71
50592;BME280;36548;50.506;30.834;2023-02-28T03:11:35;101269.69;;;-0.46;54.31
50592;BME280;36548;50.506;30.834;2023-02-28T03:12:49;101272.33;;;-0.40;54.46
50592;BME280;36548;50.506;30.834;2023-02-28T03:15:36;101274.08;;;-0.42;54.00
50592;BME280;36548;50.506;30.834;2023-02-28T03:18:09;101273.21;;;-0.42;53.79
50592;BME280;36548;50.506;30.834;2023-02-28T03:23:38;101275.86;;;-0.44;54.59
50592;BME280;36548;50.506;30.834;2023-02-28T03:25:03;101279.35;;;-0.36;54.65
50592;BME280;36548;50.506;30.834;2023-02-28T03:26:26;101272.30;;;-0.33;54.12
50592;BME280;36548;50.506;30.834;2023-02-28T03:27:42;101278.45;;;-0.30;54.20
50592;BME280;36548;50.506;30.834;2023-02-28T03:31:26;101284.58;;;-0.20;54.02
50592;BME280;36548;50.506;30.834;2023-02-28T03:32:55;101280.17;;;-0.15;53.70
50592;BME280;36548;50.506;30.834;2023-02-28T03:35:32;101290.78;;;-0.37;54.07
50592;BME280;36548;50.506;30.834;2023-02-28T03:36:45;101281.09;;;-0.31;54.71
50592;BME280;36548;50.506;30.834;2023-02-28T03:38:07;101283.70;;;-0.24;54.69
50592;BME280;36548;50.506;30.834;2023-02-28T03:40:46;101280.17;;;-0.16;53.61
50592;BME280;36548;50.506;30.834;2023-02-28T03:43:26;101283.69;;;-0.16;53.85
50592;BME280;36548;50.506;30.834;2023-02-28T03:44:42;101284.59;;;-0.28;53.99
50592;BME280;36548;50.506;30.834;2023-02-28T03:45:54;101289.02;;;-0.33;53.85
50592;BME280;36548;50.506;30.834;2023-02-28T03:48:27;101288.09;;;-0.21;53.89
50592;BME280;36548;50.506;30.834;2023-02-28T03:51:09;101288.96;;;-0.16;54.24
50592;BME280;36548;50.506;30.834;2023-02-28T03:52:21;101285.48;;;-0.26;54.07
50592;BME280;36548;50.506;30.834;2023-02-28T03:53:39;101285.45;;;-0.21;54.29
50592;BME280;36548;50.506;30.834;2023-02-28T03:54:52;101283.72;;;-0.22;53.88
50592;BME280;36548;50.506;30.834;2023-02-28T03:56:20;101286.39;;;-0.35;53.76
50592;BME280;36548;50.506;30.834;2023-02-28T03:58:05;101292.53;;;-0.34;54.05
50592;BME280;36548;50.506;30.834;2023-02-28T04:01:57;101277.52;;;-0.20;54.47
50592;BME280;36548;50.506;30.834;2023-02-28T04:03:06;101284.62;;;-0.34;54.21
50592;BME280;36548;50.506;30.834;2023-02-28T04:04:17;101289.02;;;-0.33;54.41
50592;BME280;36548;50.506;30.834;2023-02-28T04:05:26;101285.50;;;-0.37;54.22
50592;BME280;36548;50.506;30.834;2023-02-28T04:06:37;101282.86;;;-0.35;54.51
50592;BME280;36548;50.506;30.834;2023-02-28T04:07:46;101287.28;;;-0.39;54.48
50592;BME280;36548;50.506;30.834;2023-02-28T04:08:55;101281.13;;;-0.36;54.73
50592;BME280;36548;50.506;30.834;2023-02-28T04:10:05;101288.14;;;-0.30;54.86
50592;BME280;36548;50.506;30.834;2023-02-28T04:11:34;101281.08;;;-0.28;54.56
50592;BME280;36548;50.506;30.834;2023-02-28T04:12:46;101278.42;;;-0.25;54.79
50592;BME280;36548;50.506;30.834;2023-02-28T04:13:55;101278.42;;;-0.24;54.29
50592;BME280;36548;50.506;30.834;2023-02-28T04:15:05;101277.53;;;-0.21;54.44
50592;BME280;36548;50.506;30.834;2023-02-28T04:16:16;101275.77;;;-0.18;54.46
50592;BME280;36548;50.506;30.834;2023-02-28T04:17:27;101268.73;;;-0.19;54.11
50592;BME280;36548;50.506;30.834;2023-02-28T04:18:42;101264.27;;;-0.06;54.28
50592;BME280;36548;50.506;30.834;2023-02-28T04:19:54;101268.71;;;-0.15;54.32
50592;BME280;36548;50.506;30.834;2023-02-28T04:21:07;101268.71;;;-0.15;54.14
50592;BME280;36548;50.506;30.834;2023-02-28T04:22:16;101270.50;;;-0.19;54.07
50592;BME280;36548;50.506;30.834;2023-02-28T04:23:26;101272.30;;;-0.29;54.12
50592;BME280;36548;50.506;30.834;2023-02-28T04:24:35;101275.82;;;-0.38;54.61
50592;BME280;36548;50.506;30.834;2023-02-28T04:25:44;101271.44;;;-0.36;54.70
50592;BME280;36548;50.506;30.834;2023-02-28T04:27:01;101269.62;;;-0.21;54.89
50592;BME280;36548;50.506;30.834;2023-02-28T04:28:09;101264.38;;;-0.29;54.95
50592;BME280;36548;50.506;30.834;2023-02-28T04:29:27;101268.77;;;-0.31;54.57
50592;BME280;36548;50.506;30.834;2023-02-28T04:30:37;101277.57;;;-0.33;54.72
50592;BME280;36548;50.506;30.834;2023-02-28T04:31:46;101268.80;;;-0.36;54.75
50592;BME280;36548;50.506;30.834;2023-02-28T04:32:56;101272.31;;;-0.37;54.98
50592;BME280;36548;50.506;30.834;2023-02-28T04:34:06;101281.97;;;-0.32;55.25
50592;BME280;36548;50.506;30.834;2023-02-28T04:35:16;101279.35;;;-0.36;54.68
50592;BME280;36548;50.506;30.834;2023-02-28T04:36:25;101285.49;;;-0.35;54.91
50592;BME280;36548;50.506;30.834;2023-02-28T04:37:36;101274.05;;;-0.32;55.08
50592;BME280;36548;50.506;30.834;2023-02-28T04:38:46;101278.46;;;-0.31;54.88
50592;BME280;36548;50.506;30.834;2023-02-28T04:39:55;101281.95;;;-0.28;54.85
50592;BME280;36548;50.506;30.834;2023-02-28T04:41:14;101281.05;;;-0.16;54.85
50592;BME280;36548;50.506;30.834;2023-02-28T04:42:24;101286.34;;;-0.25;55.01
50592;BME280;36548;50.506;30.834;2023-02-28T04:43:33;101293.38;;;-0.23;55.16
50592;BME280;36548;50.506;30.834;2023-02-28T04:44:43;101291.61;;;-0.18;55.17
50592;BME280;36548;50.506;30.834;2023-02-28T04:45:53;101289.84;;;-0.12;55.35
50592;BME280;36548;50.506;30.834;2023-02-28T04:47:06;101292.46;;;-0.09;55.02
50592;BME280;36548;50.506;30.834;2023-02-28T04:48:15;101294.20;;;-0.05;55.02
50592;BME280;36548;50.506;30.834;2023-02-28T04:49:25;101296.81;;;-0.01;54.85
50592;BME280;36548;50.506;30.834;2023-02-28T04:50:35;101287.14;;;0.02;54.72
50592;BME280;36548;50.506;30.834;2023-02-28T04:51:51;101294.98;;;0.19;54.72
50592;BME280;36548;50.506;30.834;2023-02-28T04:53:02;101288.86;;;0.04;54.15
50592;BME280;36548;50.506;30.834;2023-02-28T04:54:14;101289.77;;;0.03;54.26
50592;BME280;36548;50.506;30.834;2023-02-28T04:55:24;101288.00;;;0.04;54.32
50592;BME280;36548;50.506;30.834;2023-02-28T04:56:33;101293.27;;;0.05;54.71
50592;BME280;36548;50.506;30.834;2023-02-28T04:57:43;101294.14;;;0.09;54.78
50592;BME280;36548;50.506;30.834;2023-02-28T04:58:52;101288.84;;;0.12;54.71
50592;BME280;36548;50.506;30.834;2023-02-28T05:00:02;101295.88;;;0.14;54.47
50592;BME280;36548;50.506;30.834;2023-02-28T05:01:22;101283.49;;;0.26;54.53
50592;BME280;36548;50.506;30.834;2023-02-28T05:02:34;101286.17;;;0.16;54.47
50592;BME280;36548;50.506;30.834;2023-02-28T05:03:44;101297.63;;;0.17;54.54
50592;BME280;36548;50.506;30.834;2023-02-28T05:04:53;101292.38;;;0.14;54.22
50592;BME280;36548;50.506;30.834;2023-02-28T05:06:02;101289.73;;;0.14;54.55
50592;BME280;36548;50.506;30.834;2023-02-28T05:07:13;101295.00;;;0.15;54.51
50592;BME280;36548;50.506;30.834;2023-02-28T05:08:23;101295.89;;;0.13;54.30
50592;BME280;36548;50.506;30.834;2023-02-28T05:09:35;101289.71;;;0.12;54.42
50592;BME280;36548;50.506;30.834;2023-02-28T05:10:44;101294.11;;;0.13;54.72
50592;BME280;36548;50.506;30.834;2023-02-28T05:11:59;101294.07;;;0.24;54.56
50592;BME280;36548;50.506;30.834;2023-02-28T05:13:11;101290.61;;;0.13;54.48
50592;BME280;36548;50.506;30.834;2023-02-28T05:14:20;101302.05;;;0.12;54.70
50592;BME280;36548;50.506;30.834;2023-02-28T05:15:30;101297.64;;;0.11;54.70
50592;BME280;36548;50.506;30.834;2023-02-28T05:16:39;101296.77;;;0.10;54.83
50592;BME280;36548;50.506;30.834;2023-02-28T05:17:49;101284.44;;;0.11;54.86
50592;BME280;36548;50.506;30.834;2023-02-28T05:18:57;101300.30;;;0.14;54.98
50592;BME280;36548;50.506;30.834;2023-02-28T05:20:09;101296.75;;;0.13;54.73
50592;BME280;36548;50.506;30.834;2023-02-28T05:21:32;101295.84;;;0.24;54.75
50592;BME280;36548;50.506;30.834;2023-02-28T05:22:43;101292.36;;;0.15;54.85
50592;BME280;36548;50.506;30.834;2023-02-28T05:23:53;101298.52;;;0.14;54.57
50592;BME280;36548;50.506;30.834;2023-02-28T05:25:04;101294.10;;;0.15;54.86
50592;BME280;36548;50.506;30.834;2023-02-28T05:26:13;101302.00;;;0.18;55.14
50592;BME280;36548;50.506;30.834;2023-02-28T05:27:24;101302.87;;;0.23;54.97
50592;BME280;36548;50.506;30.834;2023-02-28T05:28:33;101294.95;;;0.23;54.81
50592;BME280;36548;50.506;30.834;2023-02-28T05:29:43;101289.64;;;0.26;54.82
50592;BME280;36548;50.506;30.834;2023-02-28T05:30:52;101287.90;;;0.22;54.67
50592;BME280;36548;50.506;30.834;2023-02-28T05:32:01;101293.22;;;0.18;54.66
50592;BME280;36548;50.506;30.834;2023-02-28T05:33:11;101295.00;;;0.15;54.76
50592;BME280;36548;50.506;30.834;2023-02-28T05:34:21;101295.02;;;0.14;55.04
50592;BME280;36548;50.506;30.834;2023-02-28T05:35:31;101299.38;;;0.16;55.31
50592;BME280;36548;50.506;30.834;2023-02-28T05:36:42;101295.88;;;0.14;55.10
50592;BME280;36548;50.506;30.834;2023-02-28T05:37:51;101295.87;;;0.16;55.46
50592;BME280;36548;50.506;30.834;2023-02-28T05:39:07;101285.24;;;0.28;55.45
50592;BME280;36548;50.506;30.834;2023-02-28T05:40:18;101294.10;;;0.15;55.51
50592;BME280;36548;50.506;30.834;2023-02-28T05:41:56;101295.83;;;0.25;55.69
50592;BME280;36548;50.506;30.834;2023-02-28T05:43:09;101302.02;;;0.16;55.72
50592;BME280;36548;50.506;30.834;2023-02-28T05:44:19;101302.03;;;0.13;55.93
50592;BME280;36548;50.506;30.834;2023-02-28T05:45:28;101293.26;;;0.11;56.19
50592;BME280;36548;50.506;30.834;2023-02-28T05:46:37;101299.39;;;0.13;56.49
50592;BME280;36548;50.506;30.834;2023-02-28T05:47:47;101304.66;;;0.16;56.33
50592;BME280;36548;50.506;30.834;2023-02-28T05:48:56;101305.55;;;0.17;56.26
50592;BME280;36548;50.506;30.834;2023-02-28T05:50:13;101304.64;;;0.23;56.25
50592;BME280;36548;50.506;30.834;2023-02-28T05:51:23;101313.48;;;0.15;56.67
50592;BME280;36548;50.506;30.834;2023-02-28T05:52:38;101307.23;;;0.29;56.62
50592;BME280;36548;50.506;30.834;2023-02-28T05:53:49;101305.55;;;0.19;56.48
50592;BME280;36548;50.506;30.834;2023-02-28T05:55:05;101300.21;;;0.29;56.53
50592;BME280;36548;50.506;30.834;2023-02-28T05:56:15;101311.68;;;0.21;56.64
50592;BME280;36548;50.506;30.834;2023-02-28T05:57:24;101309.04;;;0.21;56.69
50592;BME280;36548;50.506;30.834;2023-02-28T05:58:33;101316.97;;;0.24;56.66
50592;BME280;36548;50.506;30.834;2023-02-28T05:59:50;101313.38;;;0.36;56.45
50592;BME280;36548;50.506;30.834;2023-02-28T06:01:18;101309.90;;;0.26;56.50
50592;BME280;36548;50.506;30.834;2023-02-28T06:02:15;101316.96;;;0.25;56.37
50592;BME280;36548;50.506;30.834;2023-02-28T06:03:31;101312.52;;;0.33;56.39
50592;BME280;36548;50.506;30.834;2023-02-28T06:04:41;101320.50;;;0.21;56.49
50592;BME280;36548;50.506;30.834;2023-02-28T06:05:56;101308.11;;;0.32;56.75
50592;BME280;36548;50.506;30.834;2023-02-28T06:07:06;101321.35;;;0.23;56.89
50592;BME280;36548;50.506;30.834;2023-02-28T06:08:16;101316.95;;;0.22;56.62
50592;BME280;36548;50.506;30.834;2023-02-28T06:09:26;101314.32;;;0.21;56.73
50592;BME280;36548;50.506;30.834;2023-02-28T06:10:36;101316.11;;;0.17;56.58
50592;BME280;36548;50.506;30.834;2023-02-28T06:11:45;101318.73;;;0.20;56.88
50592;BME280;36548;50.506;30.834;2023-02-28T06:12:59;101312.59;;;0.20;56.72
50592;BME280;36548;50.506;30.834;2023-02-28T06:14:15;101316.97;;;0.24;57.11
50592;BME280;36548;50.506;30.834;2023-02-28T06:15:25;101315.16;;;0.33;57.31
50592;BME280;36548;50.506;30.834;2023-02-28T06:16:35;101319.54;;;0.38;56.51
50592;BME280;36548;50.506;30.834;2023-02-28T06:17:45;101317.77;;;0.38;56.40
50592;BME280;36548;50.506;30.834;2023-02-28T06:18:54;101316.02;;;0.36;56.36
50592;BME280;36548;50.506;30.834;2023-02-28T06:20:12;101322.09;;;0.48;56.76
50592;BME280;36548;50.506;30.834;2023-02-28T06:21:23;101321.27;;;0.39;56.84
50592;BME280;36548;50.506;30.834;2023-02-28T06:22:33;101324.79;;;0.42;56.28
50592;BME280;36548;50.506;30.834;2023-02-28T06:23:48;101314.19;;;0.47;56.37
50592;BME280;36548;50.506;30.834;2023-02-28T06:24:57;101316.02;;;0.36;56.63
50592;BME280;36548;50.506;30.834;2023-02-28T06:26:06;101320.42;;;0.37;56.80
50592;BME280;36548;50.506;30.834;2023-02-28T06:27:16;101324.83;;;0.38;56.71
50592;BME280;36548;50.506;30.834;2023-02-28T06:28:25;101327.44;;;0.36;56.63
50592;BME280;36548;50.506;30.834;2023-02-28T06:29:36;101327.44;;;0.41;56.84
50592;BME280;36548;50.506;30.834;2023-02-28T06:30:49;101321.27;;;0.43;56.87
50592;BME280;36548;50.506;30.834;2023-02-28T06:32:04;101318.54;;;0.54;56.50
50592;BME280;36548;50.506;30.834;2023-02-28T06:33:12;101322.13;;;0.45;56.57
50592;BME280;36548;50.506;30.834;2023-02-28T06:34:28;101323.83;;;0.57;56.50
50592;BME280;36548;50.506;30.834;2023-02-28T06:35:37;101325.64;;;0.49;56.65
50592;BME280;36548;50.506;30.834;2023-02-28T06:36:53;101322.97;;;0.52;55.71
50592;BME280;36548;50.506;30.834;2023-02-28T06:38:03;101327.44;;;0.41;55.76
50592;BME280;36548;50.506;30.834;2023-02-28T06:39:19;101319.47;;;0.47;55.69
50592;BME280;36548;50.506;30.834;2023-02-28T06:40:28;101322.17;;;0.34;55.82
50592;BME280;36548;50.506;30.834;2023-02-28T06:41:47;101316.85;;;0.44;55.44
50592;BME280;36548;50.506;30.834;2023-02-28T06:42:58;101330.11;;;0.33;55.14
50592;BME280;36548;50.506;30.834;2023-02-28T06:44:15;101330.16;;;0.21;54.88
50592;BME280;36548;50.506;30.834;2023-02-28T06:45:24;101324.92;;;0.14;55.23
50592;BME280;36548;50.506;30.834;2023-02-28T06:46:34;101329.34;;;0.14;55.59
50592;BME280;36548;50.506;30.834;2023-02-28T06:47:49;101327.52;;;0.22;55.86
50592;BME280;36548;50.506;30.834;2023-02-28T06:49:00;101328.44;;;0.13;55.74
50592;BME280;36548;50.506;30.834;2023-02-28T06:50:11;101329.31;;;0.12;55.72
50592;BME280;36548;50.506;30.834;2023-02-28T06:51:21;101328.45;;;0.12;55.40
50592;BME280;36548;50.506;30.834;2023-02-28T06:52:30;101327.59;;;0.10;55.20
50592;BME280;36548;50.506;30.834;2023-02-28T06:53:40;101333.72;;;0.13;55.43
50592;BME280;36548;50.506;30.834;2023-02-28T06:54:49;101325.83;;;0.09;54.87
50592;BME280;36548;50.506;30.834;2023-02-28T06:56:07;101329.35;;;0.06;55.22
50592;BME280;36548;50.506;30.834;2023-02-28T06:57:16;101319.67;;;0.04;55.07
50592;BME280;36548;50.506;30.834;2023-02-28T06:58:25;101320.59;;;-0.04;55.20